createdAt,value
2023-01-13T00:00:41.999Z,100889.15
2023-01-13T00:04:00.904Z,100898.00
2023-01-13T00:07:22.916Z,100901.85
2023-01-13T00:10:51.528Z,100889.73
2023-01-13T00:14:13.212Z,100892.55
2023-01-13T00:16:45.468Z,100882.70
2023-01-13T00:20:13.563Z,100878.55
2023-01-13T00:23:42.653Z,100880.65
2023-01-13T00:27:04.633Z,100889.98
2023-01-13T00:30:26.927Z,100895.71
2023-01-13T00:33:45.583Z,100883.77
2023-01-13T00:37:04.952Z,100881.48
2023-01-13T00:40:17.013Z,100871.09
2023-01-13T00:43:16.635Z,100865.70
2023-01-13T00:46:35.627Z,100867.77
2023-01-13T00:49:50.364Z,100879.36
2023-01-13T00:53:19.705Z,100873.81
2023-01-13T00:56:50.989Z,100872.96
2023-01-13T00:59:43.864Z,100867.42
2023-01-13T01:03:12.919Z,100871.92
2023-01-13T01:06:22.751Z,100871.55
2023-01-13T01:09:43.570Z,100869.63
2023-01-13T01:12:55.391Z,100865.80
2023-01-13T01:16:10.761Z,100871.00
2023-01-13T01:19:20.036Z,100880.71
2023-01-13T01:22:49.109Z,100883.29
2023-01-13T01:26:17.956Z,100895.40
2023-01-13T01:29:45.355Z,100890.40
2023-01-13T01:33:14.060Z,100894.23
2023-01-13T01:36:42.850Z,100892.70
2023-01-13T01:39:44.540Z,100890.65
2023-01-13T01:42:36.734Z,100879.41
2023-01-13T01:46:06.156Z,100872.45
2023-01-13T01:49:14.891Z,100873.30
2023-01-13T01:52:45.158Z,100863.73
2023-01-13T01:56:00.203Z,100864.90
2023-01-13T01:59:00.157Z,100865.70
2023-01-13T02:02:19.253Z,100860.25
2023-01-13T02:05:48.238Z,100864.20
2023-01-13T02:08:59.985Z,100868.14
2023-01-13T02:11:50.868Z,100859.94
2023-01-13T02:15:19.773Z,100870.81
2023-01-13T02:19:18.740Z,100870.11
2023-01-13T02:22:21.429Z,100861.25
2023-01-13T02:25:51.771Z,100863.34
2023-01-13T02:29:17.840Z,100862.30
2023-01-13T02:32:09.275Z,100863.51
2023-01-13T02:35:27.601Z,100868.36
2023-01-13T02:38:13.050Z,100855.89
2023-01-13T02:41:41.545Z,100847.23
2023-01-13T02:45:00.020Z,100842.71
2023-01-13T02:47:59.449Z,100842.17
2023-01-13T02:51:28.838Z,100838.51
2023-01-13T02:54:03.336Z,100839.68
2023-01-13T02:57:12.217Z,100844.69
2023-01-13T03:00:41.521Z,100843.46
2023-01-13T03:03:33.467Z,100861.83
2023-01-13T03:07:02.764Z,100857.52
2023-01-13T03:10:16.546Z,100870.16
2023-01-13T03:13:37.270Z,100866.35
2023-01-13T03:17:10.252Z,100834.44
2023-01-13T03:20:13.191Z,100796.27
2023-01-13T03:23:15.297Z,100801.59
2023-01-13T03:25:58.765Z,100808.84
2023-01-13T03:28:46.388Z,100808.28
2023-01-13T03:31:29.483Z,100822.45
2023-01-13T03:34:06.237Z,100827.98
2023-01-13T03:36:57.000Z,100835.82
2023-01-13T03:40:16.830Z,100848.15
2023-01-13T03:43:34.626Z,100828.82
2023-01-13T03:46:12.745Z,100836.34
2023-01-13T03:48:54.635Z,100825.13
2023-01-13T03:51:54.745Z,100829.65
2023-01-13T03:55:26.361Z,100832.13
2023-01-13T03:58:30.169Z,100830.48
2023-01-13T04:01:23.480Z,100839.37
2023-01-13T04:05:01.576Z,100842.36
2023-01-13T04:08:54.824Z,100845.71
2023-01-13T04:12:09.894Z,100841.60
2023-01-13T04:18:34.891Z,100819.28
2023-01-13T04:21:43.735Z,100797.80
2023-01-13T04:24:15.708Z,100788.79
2023-01-13T04:27:14.506Z,100781.33
2023-01-13T04:30:36.280Z,100788.07
2023-01-13T04:33:44.424Z,100786.00
2023-01-13T04:36:29.046Z,100781.16
2023-01-13T04:39:57.933Z,100782.71
2023-01-13T04:43:26.992Z,100782.39
2023-01-13T04:46:56.084Z,100779.61
2023-01-13T04:50:23.815Z,100773.36
2023-01-13T04:53:52.492Z,100782.69
2023-01-13T04:56:59.907Z,100775.42
2023-01-13T05:00:29.248Z,100776.11
2023-01-13T05:03:58.725Z,100777.17
2023-01-13T05:07:30.622Z,100778.89
2023-01-13T05:10:49.771Z,100785.82
2023-01-13T05:14:16.976Z,100793.61
2023-01-13T05:17:45.699Z,100803.64
2023-01-13T05:21:14.397Z,100817.52
2023-01-13T05:24:42.253Z,100834.56
2023-01-13T05:27:46.784Z,100847.09
2023-01-13T05:30:50.406Z,100848.02
2023-01-13T05:34:14.807Z,100857.42
2023-01-13T05:37:16.554Z,100881.39
2023-01-13T05:40:23.697Z,100881.09
2023-01-13T05:43:34.235Z,100880.77
2023-01-13T05:46:52.017Z,100875.09
2023-01-13T05:49:20.835Z,100876.34
2023-01-13T05:51:49.715Z,100885.21
2023-01-13T05:55:00.286Z,100887.48
2023-01-13T05:58:28.998Z,100884.05
2023-01-13T06:01:36.348Z,100894.84
2023-01-13T06:04:27.041Z,100890.16
2023-01-13T06:06:59.080Z,100877.48
2023-01-13T06:09:56.942Z,100879.73
2023-01-13T06:12:45.058Z,100873.98
2023-01-13T06:15:40.595Z,100876.04
2023-01-13T06:18:40.073Z,100870.29
2023-01-13T06:21:20.468Z,100859.50
2023-01-13T06:23:53.444Z,100851.00
2023-01-13T06:26:26.325Z,100841.80
2023-01-13T06:28:57.438Z,100834.83
2023-01-13T06:31:29.533Z,100827.70
2023-01-13T06:34:09.308Z,100821.10
2023-01-13T06:36:56.828Z,100823.69
2023-01-13T06:39:48.743Z,100829.23
2023-01-13T06:42:58.627Z,100829.05
2023-01-13T06:46:13.794Z,100829.23
2023-01-13T06:48:53.032Z,100822.81
2023-01-13T06:51:31.935Z,100828.88
2023-01-13T06:54:20.207Z,100821.05
2023-01-13T06:56:54.810Z,100819.30
2023-01-13T06:59:37.364Z,100823.27
2023-01-13T07:02:29.434Z,100831.23
2023-01-13T07:05:08.912Z,100834.33
2023-01-13T07:08:00.492Z,100835.37
2023-01-13T07:10:32.519Z,100837.61
2023-01-13T07:13:23.523Z,100840.40
2023-01-13T07:15:56.939Z,100841.79
2023-01-13T07:18:39.892Z,100846.66
2023-01-13T07:21:23.078Z,100846.33
2023-01-13T07:23:54.621Z,100841.80
2023-01-13T07:26:29.665Z,100837.30
2023-01-13T07:28:59.498Z,100828.62
2023-01-13T07:31:31.841Z,100818.90
2023-01-13T07:34:00.748Z,100811.95
2023-01-13T07:36:32.481Z,100805.50
2023-01-13T07:39:01.347Z,100797.14
2023-01-13T07:41:51.153Z,100784.27
2023-01-13T07:44:25.913Z,100778.70
2023-01-13T07:46:59.561Z,100763.07
2023-01-13T07:49:31.589Z,100750.55
2023-01-13T07:52:07.234Z,100741.50
2023-01-13T07:54:41.915Z,100734.36
2023-01-13T07:57:13.844Z,100724.64
2023-01-13T07:59:46.044Z,100716.63
2023-01-13T08:02:25.266Z,100702.55
2023-01-13T08:05:33.833Z,100697.82
2023-01-13T08:08:15.838Z,100692.43
2023-01-13T08:10:47.809Z,100689.12
2023-01-13T08:13:22.107Z,100683.20
2023-01-13T08:16:15.781Z,100671.23
2023-01-13T08:19:05.192Z,100656.15
2023-01-13T08:21:37.420Z,100650.40
2023-01-13T08:24:19.529Z,100645.19
2023-01-13T08:26:54.902Z,100640.14
2023-01-13T08:29:23.985Z,100642.05
2023-01-13T08:31:52.650Z,100644.65
2023-01-13T08:34:24.662Z,100644.48
2023-01-13T08:37:23.448Z,100642.58
2023-01-13T08:39:52.431Z,100634.11
2023-01-13T08:42:51.522Z,100629.80
2023-01-13T08:45:33.215Z,100622.02
2023-01-13T08:48:02.014Z,100622.73
2023-01-13T08:50:30.909Z,100636.27
2023-01-13T08:53:05.828Z,100638.00
2023-01-13T08:56:15.683Z,100642.52
2023-01-13T08:59:34.913Z,100662.30
2023-01-13T09:02:24.764Z,100677.08
2023-01-13T09:05:08.284Z,100682.13
2023-01-13T09:08:13.919Z,100690.46
2023-01-13T09:11:13.048Z,100689.63
2023-01-13T09:14:03.346Z,100711.14
2023-01-13T09:16:36.042Z,100710.64
2023-01-13T09:19:15.297Z,100700.77
2023-01-13T09:22:16.002Z,100675.30
2023-01-13T09:24:51.705Z,100673.90
2023-01-13T09:28:01.813Z,100667.99
2023-01-13T09:33:34.428Z,100659.13
2023-01-13T09:36:06.783Z,100673.32
2023-01-13T09:38:46.778Z,100666.22
2023-01-13T09:41:46.017Z,100652.00
2023-01-13T09:45:06.753Z,100643.16
2023-01-13T09:48:18.894Z,100635.03
2023-01-13T09:51:19.699Z,100643.73
2023-01-13T09:54:41.778Z,100646.52
2023-01-13T09:57:23.165Z,100651.74
2023-01-13T10:00:10.763Z,100650.73
2023-01-13T10:02:51.124Z,100650.04
2023-01-13T10:05:59.557Z,100657.69
2023-01-13T10:08:33.698Z,100660.50
2023-01-13T10:11:25.075Z,100657.02
2023-01-13T10:14:57.808Z,100661.90
2023-01-13T10:17:44.491Z,100669.89
2023-01-13T10:20:34.294Z,100674.23
2023-01-13T10:23:45.765Z,100673.88
2023-01-13T10:26:57.900Z,100668.51
2023-01-13T10:29:29.490Z,100667.13
2023-01-13T10:32:22.020Z,100656.01
2023-01-13T10:35:03.523Z,100638.15
2023-01-13T10:37:35.702Z,100629.13
2023-01-13T10:40:10.388Z,100624.09
2023-01-13T10:42:50.557Z,100618.35
2023-01-13T10:45:26.147Z,100615.05
2023-01-13T10:48:35.617Z,100608.81
2023-01-13T10:51:38.222Z,100602.05
2023-01-13T10:54:36.617Z,100606.55
2023-01-13T10:57:30.944Z,100602.73
2023-01-13T11:00:04.291Z,100595.63
2023-01-13T11:02:36.743Z,100593.54
2023-01-13T11:05:26.773Z,100596.66
2023-01-13T11:07:59.060Z,100597.88
2023-01-13T11:10:48.616Z,100615.38
2023-01-13T11:14:02.013Z,100624.73
2023-01-13T11:16:40.720Z,100625.24
2023-01-13T11:19:32.233Z,100629.23
2023-01-13T11:22:50.708Z,100637.90
2023-01-13T11:25:53.423Z,100639.79
2023-01-13T11:29:33.987Z,100645.48
2023-01-13T11:32:26.024Z,100649.60
2023-01-13T11:35:04.750Z,100650.80
2023-01-13T11:38:06.906Z,100649.89
2023-01-13T11:41:27.879Z,100665.48
2023-01-13T11:44:14.867Z,100674.49
2023-01-13T11:46:43.962Z,100674.83
2023-01-13T11:49:34.113Z,100667.55
2023-01-13T11:52:08.841Z,100671.36
2023-01-13T11:55:22.637Z,100660.96
2023-01-13T11:58:38.670Z,100633.21
2023-01-13T12:01:28.582Z,100629.23
2023-01-13T12:04:00.365Z,100623.48
2023-01-13T12:06:56.914Z,100617.91
2023-01-13T12:09:43.596Z,100598.48
2023-01-13T12:12:50.962Z,100587.04
2023-01-13T12:15:56.040Z,100572.95
2023-01-13T12:18:56.945Z,100569.47
2023-01-13T12:21:34.839Z,100564.23
2023-01-13T12:24:29.902Z,100563.70
2023-01-13T12:27:47.216Z,100571.13
2023-01-13T12:30:25.242Z,100575.27
2023-01-13T12:33:16.010Z,100577.17
2023-01-13T12:36:10.784Z,100580.44
2023-01-13T12:38:53.060Z,100583.19
2023-01-13T12:41:25.676Z,100576.60
2023-01-13T12:44:17.031Z,100586.63
2023-01-13T12:47:03.013Z,100574.53
2023-01-13T12:49:39.279Z,100572.83
2023-01-13T12:52:26.517Z,100581.84
2023-01-13T12:54:55.383Z,100574.73
2023-01-13T12:57:34.169Z,100572.46
2023-01-13T13:00:08.976Z,100563.09
2023-01-13T13:02:52.458Z,100573.11
2023-01-13T13:05:50.290Z,100573.47
2023-01-13T13:08:34.786Z,100558.58
2023-01-13T13:11:33.577Z,100543.19
2023-01-13T13:14:07.362Z,100517.55
2023-01-13T13:16:54.595Z,100509.06
2023-01-13T13:19:23.159Z,100517.39
2023-01-13T13:22:18.406Z,100518.79
2023-01-13T13:25:03.057Z,100518.12
2023-01-13T13:27:43.775Z,100512.08
2023-01-13T13:30:35.280Z,100517.13
2023-01-13T13:33:18.616Z,100513.69
2023-01-13T13:36:26.324Z,100517.18
2023-01-13T13:39:48.769Z,100496.25
2023-01-13T13:42:40.385Z,100508.56
2023-01-13T13:45:51.380Z,100506.15
2023-01-13T13:48:27.061Z,100503.59
2023-01-13T13:51:20.705Z,100508.11
2023-01-13T13:53:49.567Z,100510.59
2023-01-13T13:56:25.595Z,100505.23
2023-01-13T13:58:56.549Z,100508.70
2023-01-13T14:01:46.263Z,100509.58
2023-01-13T14:04:26.990Z,100516.02
2023-01-13T14:07:01.095Z,100509.27
2023-01-13T14:09:46.296Z,100517.23
2023-01-13T14:12:40.281Z,100508.77
2023-01-13T14:15:26.035Z,100509.31
2023-01-13T14:17:58.671Z,100516.42
2023-01-13T14:20:29.071Z,100519.02
2023-01-13T14:23:03.042Z,100520.23
2023-01-13T14:25:50.951Z,100525.25
2023-01-13T14:28:59.200Z,100521.27
2023-01-13T14:31:48.027Z,100522.30
2023-01-13T14:35:16.819Z,100522.14
2023-01-13T14:38:37.885Z,100510.54
2023-01-13T14:41:24.829Z,100504.66
2023-01-13T14:44:15.874Z,100497.23
2023-01-13T14:46:47.297Z,100494.12
2023-01-13T14:50:03.790Z,100498.63
2023-01-13T14:52:38.203Z,100497.60
2023-01-13T14:56:10.266Z,100493.43
2023-01-13T14:58:42.498Z,100492.05
2023-01-13T15:01:40.364Z,100496.73
2023-01-13T15:05:06.883Z,100497.95
2023-01-13T15:07:50.104Z,100488.77
2023-01-13T15:10:50.611Z,100485.47
2023-01-13T15:14:11.641Z,100484.09
2023-01-13T15:17:40.678Z,100489.81
2023-01-13T15:20:39.589Z,100484.60
2023-01-13T15:23:08.539Z,100487.04
2023-01-13T15:26:16.861Z,100476.64
2023-01-13T15:29:35.831Z,100477.69
2023-01-13T15:32:14.687Z,100476.84
2023-01-13T15:34:54.100Z,100470.93
2023-01-13T15:37:43.472Z,100466.08
2023-01-13T15:40:34.950Z,100452.90
2023-01-13T15:43:45.469Z,100450.98
2023-01-13T15:46:58.564Z,100444.22
2023-01-13T15:50:04.194Z,100443.36
2023-01-13T15:52:53.316Z,100448.39
2023-01-13T15:55:25.283Z,100448.22
2023-01-13T15:57:54.692Z,100454.46
2023-01-13T16:00:26.951Z,100451.52
2023-01-13T16:03:19.038Z,100448.40
2023-01-13T16:05:51.848Z,100456.89
2023-01-13T16:08:41.588Z,100466.79
2023-01-13T16:12:10.574Z,100473.90
2023-01-13T16:15:22.493Z,100474.27
2023-01-13T16:18:24.736Z,100476.86
2023-01-13T16:21:24.365Z,100475.65
2023-01-13T16:24:52.981Z,100476.14
2023-01-13T16:27:35.461Z,100479.78
2023-01-13T16:30:24.036Z,100479.42
2023-01-13T16:33:25.875Z,100477.88
2023-01-13T16:36:10.471Z,100481.33
2023-01-13T16:39:01.508Z,100481.16
2023-01-13T16:41:30.344Z,100477.86
2023-01-13T16:43:59.109Z,100478.74
2023-01-13T16:46:30.316Z,100485.01
2023-01-13T16:49:03.948Z,100490.91
2023-01-13T16:51:41.964Z,100496.29
2023-01-13T16:54:19.347Z,100491.45
2023-01-13T16:56:58.240Z,100492.33
2023-01-13T16:59:29.637Z,100493.53
2023-01-13T17:02:27.616Z,100488.52
2023-01-13T17:04:56.555Z,100497.71
2023-01-13T17:07:37.795Z,100495.98
2023-01-13T17:10:10.651Z,100494.76
2023-01-13T17:13:15.661Z,100502.73
2023-01-13T17:15:47.459Z,100509.49
2023-01-13T17:18:55.887Z,100504.81
2023-01-13T17:21:36.798Z,100514.85
2023-01-13T17:24:09.051Z,100522.66
2023-01-13T17:26:50.175Z,100527.17
2023-01-13T17:29:33.746Z,100537.91
2023-01-13T17:32:31.744Z,100554.21
2023-01-13T17:35:20.373Z,100558.89
2023-01-13T17:38:42.009Z,100558.22
2023-01-13T17:42:02.334Z,100558.77
2023-01-13T17:45:31.304Z,100559.64
2023-01-13T17:48:43.264Z,100558.95
2023-01-13T17:52:05.421Z,100570.08
2023-01-13T17:54:57.733Z,100570.10
2023-01-13T17:57:46.588Z,100575.29
2023-01-13T18:00:37.326Z,100578.59
2023-01-13T18:03:46.142Z,100579.28
2023-01-13T18:06:51.449Z,100578.05
2023-01-13T18:09:34.099Z,100583.26
2023-01-13T18:12:06.128Z,100591.05
2023-01-13T18:14:35.691Z,100596.60
2023-01-13T18:17:27.701Z,100594.70
2023-01-13T18:20:14.589Z,100595.77
2023-01-13T18:23:24.438Z,100595.59
2023-01-13T18:26:53.985Z,100598.05
2023-01-13T18:29:23.028Z,100595.30
2023-01-13T18:32:51.649Z,100597.05
2023-01-13T18:36:00.417Z,100596.20
2023-01-13T18:39:10.515Z,100594.48
2023-01-13T18:42:21.597Z,100594.65
2023-01-13T18:45:31.090Z,100595.88
2023-01-13T18:48:59.789Z,100592.07
2023-01-13T18:51:39.766Z,100588.79
2023-01-13T18:54:53.258Z,100591.05
2023-01-13T18:57:38.028Z,100582.21
2023-01-13T19:01:07.296Z,100577.37
2023-01-13T19:04:33.035Z,100575.31
2023-01-13T19:07:57.248Z,100568.55
2023-01-13T19:11:26.346Z,100562.83
2023-01-13T19:14:55.090Z,100564.05
2023-01-13T19:18:07.357Z,100562.02
2023-01-13T19:20:35.891Z,100560.14
2023-01-13T19:23:14.027Z,100558.75
2023-01-13T19:25:46.018Z,100560.34
2023-01-13T19:28:45.116Z,100558.09
2023-01-13T19:31:41.455Z,100547.52
2023-01-13T19:35:12.598Z,100547.16
2023-01-13T19:38:40.216Z,100543.70
2023-01-13T19:41:57.864Z,100543.18
2023-01-13T19:44:47.806Z,100540.41
2023-01-13T19:47:17.515Z,100534.85
2023-01-13T19:50:26.195Z,100533.13
2023-01-13T19:53:55.511Z,100533.66
2023-01-13T19:56:54.767Z,100534.01
2023-01-13T20:00:04.316Z,100541.65
2023-01-13T20:03:33.291Z,100543.57
2023-01-13T20:07:08.524Z,100547.73
2023-01-13T20:10:23.181Z,100547.91
2023-01-13T20:13:52.426Z,100539.40
2023-01-13T20:17:20.455Z,100531.06
2023-01-13T20:20:16.016Z,100520.82
2023-01-13T20:23:08.525Z,100513.52
2023-01-13T20:25:57.892Z,100509.20
2023-01-13T20:28:57.148Z,100504.85
2023-01-13T20:32:05.890Z,100498.95
2023-01-13T20:34:54.583Z,100494.08
2023-01-13T20:37:26.185Z,100490.61
2023-01-13T20:40:54.987Z,100480.53
2023-01-13T20:44:16.391Z,100462.98
2023-01-13T20:47:35.362Z,100458.30
2023-01-13T20:50:40.194Z,100452.40
2023-01-13T20:53:43.876Z,100447.01
2023-01-13T20:56:16.514Z,100446.32
2023-01-13T20:59:08.125Z,100450.66
2023-01-13T21:01:53.109Z,100456.38
2023-01-13T21:04:24.705Z,100447.18
2023-01-13T21:06:57.306Z,100442.31
2023-01-13T21:09:27.680Z,100439.55
2023-01-13T21:12:14.809Z,100431.55
2023-01-13T21:15:02.192Z,100435.20
2023-01-13T21:17:51.789Z,100433.13
2023-01-13T21:20:20.714Z,100425.81
2023-01-13T21:22:50.564Z,100426.68
2023-01-13T21:25:20.733Z,100424.79
2023-01-13T21:27:49.989Z,100421.31
2023-01-13T21:30:21.832Z,100419.74
2023-01-13T21:32:50.654Z,100418.52
2023-01-13T21:35:19.361Z,100412.80
2023-01-13T21:37:52.953Z,100413.84
2023-01-13T21:40:21.831Z,100411.23
2023-01-13T21:43:08.767Z,100404.45
2023-01-13T21:46:00.739Z,100398.22
2023-01-13T21:48:29.673Z,100393.00
2023-01-13T21:51:02.688Z,100390.40
2023-01-13T21:53:31.955Z,100387.27
2023-01-13T21:56:00.416Z,100388.48
2023-01-13T21:58:29.238Z,100388.30
2023-01-13T22:01:03.537Z,100384.32
2023-01-13T22:03:52.658Z,100392.13
2023-01-13T22:06:21.549Z,100394.05
2023-01-13T22:08:50.422Z,100397.52
2023-01-13T22:11:19.257Z,100394.55
2023-01-13T22:14:09.399Z,100389.00
2023-01-13T22:17:37.102Z,100382.23
2023-01-13T22:20:59.723Z,100378.06
2023-01-13T22:24:28.717Z,100381.02
2023-01-13T22:28:00.903Z,100381.54
2023-01-13T22:31:29.554Z,100387.61
2023-01-13T22:34:48.558Z,100392.46
2023-01-13T22:38:17.345Z,100385.17
2023-01-13T22:41:46.457Z,100386.74
2023-01-13T22:45:15.617Z,100383.61
2023-01-13T22:48:33.931Z,100387.44
2023-01-13T22:52:08.589Z,100380.49
2023-01-13T22:55:37.878Z,100384.31
2023-01-13T22:59:06.480Z,100380.32
2023-01-13T23:02:35.406Z,100369.91
2023-01-13T23:06:04.025Z,100369.38
2023-01-13T23:09:32.731Z,100370.08
2023-01-13T23:13:01.448Z,100370.26
2023-01-13T23:16:30.502Z,100373.72
2023-01-13T23:19:59.325Z,100367.99
2023-01-13T23:23:26.708Z,100374.77
2023-01-13T23:26:35.582Z,100369.56
2023-01-13T23:30:04.648Z,100362.45
2023-01-13T23:32:56.360Z,100357.75
2023-01-13T23:35:25.310Z,100357.41
2023-01-13T23:37:54.196Z,100354.80
2023-01-13T23:40:23.116Z,100354.80
2023-01-13T23:42:52.216Z,100353.94
2023-01-13T23:45:24.618Z,100352.38
2023-01-13T23:47:53.610Z,100348.91
2023-01-13T23:50:22.419Z,100343.52
2023-01-13T23:52:50.857Z,100344.56
2023-01-13T23:55:19.788Z,100348.02
2023-01-13T23:57:49.243Z,100348.21
